Lucknow Airport
VILK : now visible

Airfield :











YOU CAN JOIN US ON...

 
LOGIN :

Register | Disclaimer

   EN    FR    IT 

 









Legend :    VFR   Marginal VFR   IFR   Intensive IFR   Very Intensive IFR
Visi :
Ceiling :
>= 8 km
>= 3000ft
5 to 8 km
1000 to 3000 ft
1500m to 5 km
500 to 1000 ft
800 to 1500m
200 to 500 ft
< 800m
< 200 ft
Symbols :   Thunderstorms  Fog  Heavy snow  Heavy precipitations  Wind > 20 kt






- Airport Elevation : 410 ft
- IATA code : LKO


VILK - Lucknow

CURRENT METAR :
  • 181900Z 26011KT 4000 HZ FEW020 FEW030CB SCT100 33/21 Q0996 NOSIG

EXPIRED METARs :
  • 181800Z 25008KT 4000 HZ SCT100 33/21 Q0997 NOSIG
  • 181830Z 26011KT 4000 HZ FEW020 FEW030CB SCT100 33/21 Q0996 NOSIG
  • 181730Z 25010KT 4000 HZ SCT100 34/21 Q0997 NOSIG
  • 181700Z 26010G20KT 4000 HZ SCT100 34/21 Q0997 NOSIG
  • 181630Z 26010G20KT 4000 HZ SCT100 35/22 Q0997 NOSIG
  • 181600Z 24008KT 4000 HZ SCT100 35/22 Q0996 NOSIG
  • 181530Z 24008KT 4000 HZ SCT100 36/22 Q0995 NOSIG
  • 181500Z 23015G25KT 3000 BLDU SCT100 36/22 Q0995 TEMPO 1500 BLDU
  • 181430Z 27006KT 5000 HZ FEW100 40/21 Q0994 NOSIG

TAF TAF VILK
Valid from the 18 at 18:00 until the 20 at 00:00 UTC


181700Z 1818/1924 26008G18KT 4000 HZ SCT100
BECMG 1900/1902 25005KT 3000 HZ FEW020 SCT100
BECMG 1904/1906 29010KT 5000 HZ SCT020 BKN100
BECMG 1907/1909 29010G20KT 5000 HZ
BECMG 1922/1924 24005KT 4000 HZ SCT020 SCT100
VIDF FIR / Asia



MET'MAP, your aeronautical weather chart ! - Copyright ORBIFLY December 2007 - Disclaimer

ORBIFLY MET'MAP TEAM :

Programming & Development : Alexandra Zaïnal
Original concept : Baudouin d'Aumeries
Technical & hardware support : Manuel Goepfert
Assistance : Marc-Olivier Méhu




SOURCES & CREDITS :

   NOAA       Earth
Advisory